sensor_id;sensor_type;location;lat;lon;timestamp;temperature;humidity
21540;DHT22;10931;52.164;5.518;2023-04-06T00:01:16;18.40;55.90
21540;DHT22;10931;52.164;5.518;2023-04-06T00:03:42;18.30;55.80
21540;DHT22;10931;52.164;5.518;2023-04-06T00:06:08;18.30;55.80
21540;DHT22;10931;52.164;5.518;2023-04-06T00:08:33;18.30;55.80
21540;DHT22;10931;52.164;5.518;2023-04-06T00:10:59;18.30;55.80
21540;DHT22;10931;52.164;5.518;2023-04-06T00:13:25;18.30;55.80
21540;DHT22;10931;52.164;5.518;2023-04-06T00:15:50;18.30;55.80
21540;DHT22;10931;52.164;5.518;2023-04-06T00:18:16;18.30;55.80
21540;DHT22;10931;52.164;5.518;2023-04-06T00:20:42;18.30;55.80
21540;DHT22;10931;52.164;5.518;2023-04-06T00:23:09;18.30;55.80
21540;DHT22;10931;52.164;5.518;2023-04-06T00:25:34;18.30;55.80
21540;DHT22;10931;52.164;5.518;2023-04-06T00:28:00;18.30;55.80
21540;DHT22;10931;52.164;5.518;2023-04-06T00:30:26;18.20;55.80
21540;DHT22;10931;52.164;5.518;2023-04-06T00:32:52;18.20;55.80
21540;DHT22;10931;52.164;5.518;2023-04-06T00:35:25;18.30;55.80
21540;DHT22;10931;52.164;5.518;2023-04-06T00:37:56;18.20;55.80
21540;DHT22;10931;52.164;5.518;2023-04-06T00:40:25;18.20;55.80
21540;DHT22;10931;52.164;5.518;2023-04-06T00:42:54;18.20;55.80
21540;DHT22;10931;52.164;5.518;2023-04-06T00:45:19;18.20;55.80
21540;DHT22;10931;52.164;5.518;2023-04-06T00:47:48;18.20;55.80
21540;DHT22;10931;52.164;5.518;2023-04-06T00:50:14;18.20;55.80
21540;DHT22;10931;52.164;5.518;2023-04-06T00:52:39;18.10;55.80
21540;DHT22;10931;52.164;5.518;2023-04-06T00:55:05;18.10;55.70
21540;DHT22;10931;52.164;5.518;2023-04-06T00:57:31;18.10;55.80
21540;DHT22;10931;52.164;5.518;2023-04-06T00:59:57;18.10;55.80
21540;DHT22;10931;52.164;5.518;2023-04-06T01:02:24;18.10;55.80
21540;DHT22;10931;52.164;5.518;2023-04-06T01:04:54;18.10;55.70
21540;DHT22;10931;52.164;5.518;2023-04-06T01:07:20;18.10;55.80
21540;DHT22;10931;52.164;5.518;2023-04-06T01:09:48;18.10;55.80
21540;DHT22;10931;52.164;5.518;2023-04-06T01:12:14;18.10;55.80
21540;DHT22;10931;52.164;5.518;2023-04-06T01:14:45;18.10;55.80
21540;DHT22;10931;52.164;5.518;2023-04-06T01:17:11;18.00;55.70
21540;DHT22;10931;52.164;5.518;2023-04-06T01:19:37;18.00;55.70
21540;DHT22;10931;52.164;5.518;2023-04-06T01:22:07;18.00;55.70
21540;DHT22;10931;52.164;5.518;2023-04-06T01:24:35;18.00;55.70
21540;DHT22;10931;52.164;5.518;2023-04-06T01:27:01;18.00;55.70
21540;DHT22;10931;52.164;5.518;2023-04-06T01:29:30;18.00;55.70
21540;DHT22;10931;52.164;5.518;2023-04-06T01:31:58;18.00;55.70
21540;DHT22;10931;52.164;5.518;2023-04-06T01:34:23;17.90;55.70
21540;DHT22;10931;52.164;5.518;2023-04-06T01:36:49;18.00;55.70
21540;DHT22;10931;52.164;5.518;2023-04-06T01:39:15;18.00;55.80
21540;DHT22;10931;52.164;5.518;2023-04-06T01:41:41;17.90;55.70
21540;DHT22;10931;52.164;5.518;2023-04-06T01:44:09;17.90;55.70
21540;DHT22;10931;52.164;5.518;2023-04-06T01:46:35;17.90;55.70
21540;DHT22;10931;52.164;5.518;2023-04-06T01:49:01;17.90;55.70
21540;DHT22;10931;52.164;5.518;2023-04-06T01:51:27;17.80;55.60
21540;DHT22;10931;52.164;5.518;2023-04-06T01:53:52;17.80;55.70
21540;DHT22;10931;52.164;5.518;2023-04-06T01:56:24;17.90;55.70
21540;DHT22;10931;52.164;5.518;2023-04-06T01:58:49;17.90;55.70
21540;DHT22;10931;52.164;5.518;2023-04-06T02:01:15;17.90;55.70
21540;DHT22;10931;52.164;5.518;2023-04-06T02:03:41;17.80;55.70
21540;DHT22;10931;52.164;5.518;2023-04-06T02:06:06;17.80;55.70
21540;DHT22;10931;52.164;5.518;2023-04-06T02:08:32;17.80;55.70
21540;DHT22;10931;52.164;5.518;2023-04-06T02:10:58;17.80;55.70
21540;DHT22;10931;52.164;5.518;2023-04-06T02:13:29;17.80;55.70
21540;DHT22;10931;52.164;5.518;2023-04-06T02:16:00;17.80;55.70
21540;DHT22;10931;52.164;5.518;2023-04-06T02:18:40;17.80;55.70
21540;DHT22;10931;52.164;5.518;2023-04-06T02:21:05;17.70;55.60
21540;DHT22;10931;52.164;5.518;2023-04-06T02:23:31;17.70;55.70
21540;DHT22;10931;52.164;5.518;2023-04-06T02:25:57;17.70;55.70
21540;DHT22;10931;52.164;5.518;2023-04-06T02:28:25;17.70;55.70
21540;DHT22;10931;52.164;5.518;2023-04-06T02:30:51;17.70;55.70
21540;DHT22;10931;52.164;5.518;2023-04-06T02:33:17;17.70;55.70
21540;DHT22;10931;52.164;5.518;2023-04-06T02:35:44;17.70;55.60
21540;DHT22;10931;52.164;5.518;2023-04-06T02:38:11;17.70;55.70
21540;DHT22;10931;52.164;5.518;2023-04-06T02:40:36;17.70;55.70
21540;DHT22;10931;52.164;5.518;2023-04-06T02:43:02;17.60;55.60
21540;DHT22;10931;52.164;5.518;2023-04-06T02:45:30;17.60;55.60
21540;DHT22;10931;52.164;5.518;2023-04-06T02:47:55;17.60;55.60
21540;DHT22;10931;52.164;5.518;2023-04-06T02:50:21;17.60;55.60
21540;DHT22;10931;52.164;5.518;2023-04-06T02:52:47;17.60;55.70
21540;DHT22;10931;52.164;5.518;2023-04-06T02:55:12;17.60;55.60
21540;DHT22;10931;52.164;5.518;2023-04-06T02:57:38;17.60;55.60
21540;DHT22;10931;52.164;5.518;2023-04-06T03:00:04;17.60;55.60
21540;DHT22;10931;52.164;5.518;2023-04-06T03:02:33;17.60;55.60
21540;DHT22;10931;52.164;5.518;2023-04-06T03:05:01;17.60;55.70
21540;DHT22;10931;52.164;5.518;2023-04-06T03:07:28;17.60;55.70
21540;DHT22;10931;52.164;5.518;2023-04-06T03:09:56;17.50;55.60
21540;DHT22;10931;52.164;5.518;2023-04-06T03:12:25;17.50;55.70
21540;DHT22;10931;52.164;5.518;2023-04-06T03:14:51;17.50;55.60
21540;DHT22;10931;52.164;5.518;2023-04-06T03:17:19;17.50;55.60
21540;DHT22;10931;52.164;5.518;2023-04-06T03:19:45;17.50;55.60
21540;DHT22;10931;52.164;5.518;2023-04-06T03:22:13;17.50;55.70
21540;DHT22;10931;52.164;5.518;2023-04-06T03:24:39;17.50;55.70
21540;DHT22;10931;52.164;5.518;2023-04-06T03:27:05;17.40;55.60
21540;DHT22;10931;52.164;5.518;2023-04-06T03:29:31;17.50;55.70
21540;DHT22;10931;52.164;5.518;2023-04-06T03:31:57;17.50;55.70
21540;DHT22;10931;52.164;5.518;2023-04-06T03:34:23;17.50;55.70
21540;DHT22;10931;52.164;5.518;2023-04-06T03:36:48;17.50;55.70
21540;DHT22;10931;52.164;5.518;2023-04-06T03:39:14;17.40;55.60
21540;DHT22;10931;52.164;5.518;2023-04-06T03:41:40;17.40;55.60
21540;DHT22;10931;52.164;5.518;2023-04-06T03:44:12;17.40;55.60
21540;DHT22;10931;52.164;5.518;2023-04-06T03:46:37;17.40;56.30
21540;DHT22;10931;52.164;5.518;2023-04-06T03:49:03;17.40;55.60
21540;DHT22;10931;52.164;5.518;2023-04-06T03:51:31;17.40;55.70
21540;DHT22;10931;52.164;5.518;2023-04-06T03:53:57;17.40;55.60
21540;DHT22;10931;52.164;5.518;2023-04-06T03:56:23;17.40;55.70
21540;DHT22;10931;52.164;5.518;2023-04-06T03:58:48;17.40;55.60
21540;DHT22;10931;52.164;5.518;2023-04-06T04:01:16;17.30;55.60
21540;DHT22;10931;52.164;5.518;2023-04-06T04:03:43;17.40;55.70
21540;DHT22;10931;52.164;5.518;2023-04-06T04:06:11;17.30;55.60
21540;DHT22;10931;52.164;5.518;2023-04-06T04:08:37;17.30;55.60
21540;DHT22;10931;52.164;5.518;2023-04-06T04:11:02;17.30;55.60
21540;DHT22;10931;52.164;5.518;2023-04-06T04:13:30;17.30;55.60
21540;DHT22;10931;52.164;5.518;2023-04-06T04:15:59;17.30;55.60
21540;DHT22;10931;52.164;5.518;2023-04-06T04:18:25;17.30;55.60
21540;DHT22;10931;52.164;5.518;2023-04-06T04:20:51;17.30;55.60
21540;DHT22;10931;52.164;5.518;2023-04-06T04:23:16;17.30;55.60
21540;DHT22;10931;52.164;5.518;2023-04-06T04:25:43;17.20;55.60
21540;DHT22;10931;52.164;5.518;2023-04-06T04:28:09;17.30;55.60
21540;DHT22;10931;52.164;5.518;2023-04-06T04:30:34;17.30;55.70
21540;DHT22;10931;52.164;5.518;2023-04-06T04:33:00;17.20;55.60
21540;DHT22;10931;52.164;5.518;2023-04-06T04:35:26;17.20;55.60
21540;DHT22;10931;52.164;5.518;2023-04-06T04:37:59;17.20;55.60
21540;DHT22;10931;52.164;5.518;2023-04-06T04:40:27;17.20;55.60
21540;DHT22;10931;52.164;5.518;2023-04-06T04:42:53;17.20;56.20
21540;DHT22;10931;52.164;5.518;2023-04-06T04:45:18;17.20;55.80
21540;DHT22;10931;52.164;5.518;2023-04-06T04:47:44;17.20;55.60
21540;DHT22;10931;52.164;5.518;2023-04-06T04:50:10;17.20;55.60
21540;DHT22;10931;52.164;5.518;2023-04-06T04:52:37;17.20;55.60
21540;DHT22;10931;52.164;5.518;2023-04-06T04:55:03;17.20;55.60
21540;DHT22;10931;52.164;5.518;2023-04-06T04:57:29;17.20;55.60
21540;DHT22;10931;52.164;5.518;2023-04-06T04:59:57;17.10;55.60
21540;DHT22;10931;52.164;5.518;2023-04-06T05:02:27;17.20;55.60
21540;DHT22;10931;52.164;5.518;2023-04-06T05:04:52;17.10;55.60
21540;DHT22;10931;52.164;5.518;2023-04-06T05:07:20;17.10;55.60
21540;DHT22;10931;52.164;5.518;2023-04-06T05:09:46;17.10;55.60
21540;DHT22;10931;52.164;5.518;2023-04-06T05:12:18;17.10;55.60
21540;DHT22;10931;52.164;5.518;2023-04-06T05:14:44;17.10;55.60
21540;DHT22;10931;52.164;5.518;2023-04-06T05:17:10;17.10;55.60
21540;DHT22;10931;52.164;5.518;2023-04-06T05:19:35;17.10;55.60
21540;DHT22;10931;52.164;5.518;2023-04-06T05:22:01;17.00;55.60
21540;DHT22;10931;52.164;5.518;2023-04-06T05:24:27;17.10;55.60
21540;DHT22;10931;52.164;5.518;2023-04-06T05:26:52;17.10;55.60
21540;DHT22;10931;52.164;5.518;2023-04-06T05:29:21;17.10;55.60
21540;DHT22;10931;52.164;5.518;2023-04-06T05:31:47;17.10;55.60
21540;DHT22;10931;52.164;5.518;2023-04-06T05:34:12;17.10;55.60
21540;DHT22;10931;52.164;5.518;2023-04-06T05:36:38;17.00;55.60
21540;DHT22;10931;52.164;5.518;2023-04-06T05:39:05;17.00;55.60
21540;DHT22;10931;52.164;5.518;2023-04-06T05:41:31;17.00;55.60
21540;DHT22;10931;52.164;5.518;2023-04-06T05:43:57;17.00;55.60
21540;DHT22;10931;52.164;5.518;2023-04-06T05:46:24;17.00;55.60
21540;DHT22;10931;52.164;5.518;2023-04-06T05:48:50;17.00;55.60
21540;DHT22;10931;52.164;5.518;2023-04-06T05:51:15;17.00;55.60
21540;DHT22;10931;52.164;5.518;2023-04-06T05:53:41;17.00;55.60
21540;DHT22;10931;52.164;5.518;2023-04-06T05:56:07;17.00;55.60
21540;DHT22;10931;52.164;5.518;2023-04-06T05:58:33;17.00;55.60
21540;DHT22;10931;52.164;5.518;2023-04-06T06:01:01;17.00;55.60
21540;DHT22;10931;52.164;5.518;2023-04-06T06:03:27;17.00;55.60
21540;DHT22;10931;52.164;5.518;2023-04-06T06:05:52;17.00;55.60
21540;DHT22;10931;52.164;5.518;2023-04-06T06:08:18;17.00;55.70
21540;DHT22;10931;52.164;5.518;2023-04-06T06:10:44;17.00;55.60
21540;DHT22;10931;52.164;5.518;2023-04-06T06:13:18;16.90;55.60
21540;DHT22;10931;52.164;5.518;2023-04-06T06:15:44;16.90;55.60
21540;DHT22;10931;52.164;5.518;2023-04-06T06:18:09;16.90;55.60
21540;DHT22;10931;52.164;5.518;2023-04-06T06:20:35;16.90;55.60
21540;DHT22;10931;52.164;5.518;2023-04-06T06:23:04;16.90;55.60
21540;DHT22;10931;52.164;5.518;2023-04-06T06:25:30;16.90;55.60
21540;DHT22;10931;52.164;5.518;2023-04-06T06:27:59;16.90;55.60
21540;DHT22;10931;52.164;5.518;2023-04-06T06:30:27;16.90;55.70
21540;DHT22;10931;52.164;5.518;2023-04-06T06:32:52;16.90;55.60
21540;DHT22;10931;52.164;5.518;2023-04-06T06:35:18;16.90;55.60
21540;DHT22;10931;52.164;5.518;2023-04-06T06:37:44;16.90;55.70
21540;DHT22;10931;52.164;5.518;2023-04-06T06:40:10;16.90;55.60
21540;DHT22;10931;52.164;5.518;2023-04-06T06:42:38;16.90;55.60
21540;DHT22;10931;52.164;5.518;2023-04-06T06:45:06;16.80;55.60
21540;DHT22;10931;52.164;5.518;2023-04-06T06:47:32;16.80;55.60
21540;DHT22;10931;52.164;5.518;2023-04-06T06:49:58;16.80;55.60
21540;DHT22;10931;52.164;5.518;2023-04-06T06:52:24;16.80;55.60
21540;DHT22;10931;52.164;5.518;2023-04-06T06:54:52;16.80;55.60
21540;DHT22;10931;52.164;5.518;2023-04-06T06:57:17;16.80;55.60
21540;DHT22;10931;52.164;5.518;2023-04-06T06:59:43;16.80;55.60
21540;DHT22;10931;52.164;5.518;2023-04-06T07:02:11;16.80;55.60
21540;DHT22;10931;52.164;5.518;2023-04-06T07:04:37;16.80;55.60
21540;DHT22;10931;52.164;5.518;2023-04-06T07:07:02;16.80;55.60
21540;DHT22;10931;52.164;5.518;2023-04-06T07:09:29;16.80;55.60
21540;DHT22;10931;52.164;5.518;2023-04-06T07:11:54;16.80;55.70
21540;DHT22;10931;52.164;5.518;2023-04-06T07:14:21;16.80;55.60
21540;DHT22;10931;52.164;5.518;2023-04-06T07:16:47;16.80;55.60
21540;DHT22;10931;52.164;5.518;2023-04-06T07:19:15;16.80;55.60
21540;DHT22;10931;52.164;5.518;2023-04-06T07:21:41;16.80;55.60
21540;DHT22;10931;52.164;5.518;2023-04-06T07:24:07;16.80;55.60
21540;DHT22;10931;52.164;5.518;2023-04-06T07:26:32;16.80;55.60
21540;DHT22;10931;52.164;5.518;2023-04-06T07:28:58;16.80;55.60
21540;DHT22;10931;52.164;5.518;2023-04-06T07:31:24;16.80;55.60
21540;DHT22;10931;52.164;5.518;2023-04-06T07:33:50;16.80;55.60
21540;DHT22;10931;52.164;5.518;2023-04-06T07:36:16;16.80;55.60
21540;DHT22;10931;52.164;5.518;2023-04-06T07:38:45;16.80;55.60
21540;DHT22;10931;52.164;5.518;2023-04-06T07:41:25;16.80;55.60
21540;DHT22;10931;52.164;5.518;2023-04-06T07:43:51;16.80;55.60
21540;DHT22;10931;52.164;5.518;2023-04-06T07:46:17;16.80;55.60
21540;DHT22;10931;52.164;5.518;2023-04-06T07:48:42;16.80;55.70
21540;DHT22;10931;52.164;5.518;2023-04-06T07:51:10;16.80;55.70
21540;DHT22;10931;52.164;5.518;2023-04-06T07:53:39;16.80;55.70
21540;DHT22;10931;52.164;5.518;2023-04-06T07:56:05;16.70;55.60
21540;DHT22;10931;52.164;5.518;2023-04-06T07:58:31;16.80;55.70
21540;DHT22;10931;52.164;5.518;2023-04-06T08:00:57;16.70;55.60
21540;DHT22;10931;52.164;5.518;2023-04-06T08:03:23;16.80;55.70
21540;DHT22;10931;52.164;5.518;2023-04-06T08:05:51;16.80;55.70
21540;DHT22;10931;52.164;5.518;2023-04-06T08:08:18;16.80;55.70
21540;DHT22;10931;52.164;5.518;2023-04-06T08:10:44;16.70;55.70
21540;DHT22;10931;52.164;5.518;2023-04-06T08:13:10;16.70;55.60
21540;DHT22;10931;52.164;5.518;2023-04-06T08:15:38;16.70;55.60
21540;DHT22;10931;52.164;5.518;2023-04-06T08:18:04;16.80;55.70
21540;DHT22;10931;52.164;5.518;2023-04-06T08:20:29;16.80;55.70
21540;DHT22;10931;52.164;5.518;2023-04-06T08:22:55;16.70;55.60
21540;DHT22;10931;52.164;5.518;2023-04-06T08:25:21;16.80;55.70
21540;DHT22;10931;52.164;5.518;2023-04-06T08:27:47;16.70;55.70
21540;DHT22;10931;52.164;5.518;2023-04-06T08:30:14;16.70;55.70
21540;DHT22;10931;52.164;5.518;2023-04-06T08:32:41;16.80;55.70
21540;DHT22;10931;52.164;5.518;2023-04-06T08:35:09;16.80;55.70
21540;DHT22;10931;52.164;5.518;2023-04-06T08:37:35;16.80;55.70
21540;DHT22;10931;52.164;5.518;2023-04-06T08:40:00;16.80;55.70
21540;DHT22;10931;52.164;5.518;2023-04-06T08:42:31;16.80;55.80
21540;DHT22;10931;52.164;5.518;2023-04-06T08:44:57;16.80;56.40
21540;DHT22;10931;52.164;5.518;2023-04-06T08:47:23;16.80;55.80
21540;DHT22;10931;52.164;5.518;2023-04-06T08:49:49;16.80;55.70
21540;DHT22;10931;52.164;5.518;2023-04-06T08:52:18;16.80;55.80
21540;DHT22;10931;52.164;5.518;2023-04-06T08:54:44;16.80;55.80
21540;DHT22;10931;52.164;5.518;2023-04-06T08:57:10;16.80;55.80
21540;DHT22;10931;52.164;5.518;2023-04-06T08:59:37;16.80;55.80
21540;DHT22;10931;52.164;5.518;2023-04-06T09:02:04;16.80;55.80
21540;DHT22;10931;52.164;5.518;2023-04-06T09:04:33;16.80;55.80
21540;DHT22;10931;52.164;5.518;2023-04-06T09:07:00;16.80;55.80
21540;DHT22;10931;52.164;5.518;2023-04-06T09:09:26;16.80;55.80
21540;DHT22;10931;52.164;5.518;2023-04-06T09:11:52;16.80;55.80
21540;DHT22;10931;52.164;5.518;2023-04-06T09:14:33;16.80;55.80
21540;DHT22;10931;52.164;5.518;2023-04-06T09:17:00;16.80;55.80
21540;DHT22;10931;52.164;5.518;2023-04-06T09:19:26;16.80;55.80
21540;DHT22;10931;52.164;5.518;2023-04-06T09:22:04;16.80;55.80
21540;DHT22;10931;52.164;5.518;2023-04-06T09:24:42;16.80;55.80
21540;DHT22;10931;52.164;5.518;2023-04-06T09:27:08;16.80;55.80
21540;DHT22;10931;52.164;5.518;2023-04-06T09:29:34;16.80;55.80
21540;DHT22;10931;52.164;5.518;2023-04-06T09:32:08;16.80;55.80
21540;DHT22;10931;52.164;5.518;2023-04-06T09:34:38;16.80;55.80
21540;DHT22;10931;52.164;5.518;2023-04-06T09:37:19;16.80;55.80
21540;DHT22;10931;52.164;5.518;2023-04-06T09:39:46;16.80;55.80
21540;DHT22;10931;52.164;5.518;2023-04-06T09:42:23;16.80;55.80
21540;DHT22;10931;52.164;5.518;2023-04-06T09:44:50;16.80;55.80
21540;DHT22;10931;52.164;5.518;2023-04-06T09:47:16;16.90;55.90
21540;DHT22;10931;52.164;5.518;2023-04-06T09:49:43;16.90;55.90
21540;DHT22;10931;52.164;5.518;2023-04-06T09:52:11;16.90;55.90
21540;DHT22;10931;52.164;5.518;2023-04-06T09:54:40;16.90;55.90
21540;DHT22;10931;52.164;5.518;2023-04-06T09:57:32;16.90;55.90
21540;DHT22;10931;52.164;5.518;2023-04-06T10:00:04;16.90;55.90
21540;DHT22;10931;52.164;5.518;2023-04-06T10:05:07;16.90;55.90
21540;DHT22;10931;52.164;5.518;2023-04-06T10:07:34;16.90;55.90
21540;DHT22;10931;52.164;5.518;2023-04-06T10:10:02;16.90;55.90
21540;DHT22;10931;52.164;5.518;2023-04-06T10:12:28;16.90;56.60
21540;DHT22;10931;52.164;5.518;2023-04-06T10:14:54;16.90;55.90
21540;DHT22;10931;52.164;5.518;2023-04-06T10:17:21;16.90;56.00
21540;DHT22;10931;52.164;5.518;2023-04-06T10:20:04;16.90;55.90
21540;DHT22;10931;52.164;5.518;2023-04-06T10:23:01;16.90;55.90
21540;DHT22;10931;52.164;5.518;2023-04-06T10:25:34;16.90;55.90
21540;DHT22;10931;52.164;5.518;2023-04-06T10:28:11;16.90;56.00
21540;DHT22;10931;52.164;5.518;2023-04-06T10:30:42;16.90;56.00
21540;DHT22;10931;52.164;5.518;2023-04-06T10:33:19;17.00;56.00
21540;DHT22;10931;52.164;5.518;2023-04-06T10:35:45;17.00;56.00
21540;DHT22;10931;52.164;5.518;2023-04-06T10:38:11;17.00;56.00
21540;DHT22;10931;52.164;5.518;2023-04-06T10:40:40;17.00;56.00
21540;DHT22;10931;52.164;5.518;2023-04-06T10:43:20;17.00;56.00
21540;DHT22;10931;52.164;5.518;2023-04-06T10:45:55;17.00;56.10
21540;DHT22;10931;52.164;5.518;2023-04-06T10:48:21;17.00;56.00
21540;DHT22;10931;52.164;5.518;2023-04-06T10:50:53;17.00;56.10
21540;DHT22;10931;52.164;5.518;2023-04-06T10:53:26;17.00;56.10
21540;DHT22;10931;52.164;5.518;2023-04-06T10:55:54;17.00;56.10
21540;DHT22;10931;52.164;5.518;2023-04-06T10:58:35;17.00;56.10
21540;DHT22;10931;52.164;5.518;2023-04-06T11:01:04;17.00;56.10
21540;DHT22;10931;52.164;5.518;2023-04-06T11:03:30;17.00;56.10
21540;DHT22;10931;52.164;5.518;2023-04-06T11:05:57;17.10;56.10
21540;DHT22;10931;52.164;5.518;2023-04-06T11:08:33;17.10;56.20
21540;DHT22;10931;52.164;5.518;2023-04-06T11:13:42;17.10;56.50
21540;DHT22;10931;52.164;5.518;2023-04-06T11:16:27;17.10;56.60
21540;DHT22;10931;52.164;5.518;2023-04-06T11:19:04;17.10;56.70
21540;DHT22;10931;52.164;5.518;2023-04-06T11:24:18;17.20;57.00
21540;DHT22;10931;52.164;5.518;2023-04-06T11:26:52;17.20;57.20
21540;DHT22;10931;52.164;5.518;2023-04-06T11:29:25;17.30;57.30
21540;DHT22;10931;52.164;5.518;2023-04-06T11:31:53;17.30;57.40
21540;DHT22;10931;52.164;5.518;2023-04-06T11:34:23;17.30;57.40
21540;DHT22;10931;52.164;5.518;2023-04-06T11:36:55;17.40;57.50
21540;DHT22;10931;52.164;5.518;2023-04-06T11:39:28;17.40;57.60
21540;DHT22;10931;52.164;5.518;2023-04-06T11:41:59;17.40;57.60
21540;DHT22;10931;52.164;5.518;2023-04-06T11:44:46;17.50;57.80
21540;DHT22;10931;52.164;5.518;2023-04-06T11:47:14;17.50;57.80
21540;DHT22;10931;52.164;5.518;2023-04-06T11:49:43;17.50;57.80
21540;DHT22;10931;52.164;5.518;2023-04-06T11:52:22;17.60;57.90
21540;DHT22;10931;52.164;5.518;2023-04-06T11:54:49;17.60;57.90
21540;DHT22;10931;52.164;5.518;2023-04-06T11:57:16;17.60;57.90
21540;DHT22;10931;52.164;5.518;2023-04-06T11:59:42;17.70;58.00
21540;DHT22;10931;52.164;5.518;2023-04-06T12:02:09;17.70;58.10
21540;DHT22;10931;52.164;5.518;2023-04-06T12:04:35;17.70;58.10
21540;DHT22;10931;52.164;5.518;2023-04-06T12:07:04;17.80;58.10
21540;DHT22;10931;52.164;5.518;2023-04-06T12:09:30;17.80;58.20
21540;DHT22;10931;52.164;5.518;2023-04-06T12:11:56;17.80;58.20
21540;DHT22;10931;52.164;5.518;2023-04-06T12:14:22;17.90;58.20
21540;DHT22;10931;52.164;5.518;2023-04-06T12:16:48;17.90;58.30
21540;DHT22;10931;52.164;5.518;2023-04-06T12:19:16;17.90;58.30
21540;DHT22;10931;52.164;5.518;2023-04-06T12:21:42;18.00;58.30
21540;DHT22;10931;52.164;5.518;2023-04-06T12:24:10;18.00;58.30
21540;DHT22;10931;52.164;5.518;2023-04-06T12:26:37;18.00;58.30
21540;DHT22;10931;52.164;5.518;2023-04-06T12:29:03;18.00;59.00
21540;DHT22;10931;52.164;5.518;2023-04-06T12:31:36;18.10;58.40
21540;DHT22;10931;52.164;5.518;2023-04-06T12:34:08;18.10;58.50
21540;DHT22;10931;52.164;5.518;2023-04-06T12:36:34;18.10;58.40
21540;DHT22;10931;52.164;5.518;2023-04-06T12:39:00;18.10;58.40
21540;DHT22;10931;52.164;5.518;2023-04-06T12:41:27;18.20;58.50
21540;DHT22;10931;52.164;5.518;2023-04-06T12:43:53;18.30;58.60
21540;DHT22;10931;52.164;5.518;2023-04-06T12:46:19;18.30;58.60
21540;DHT22;10931;52.164;5.518;2023-04-06T12:48:45;18.30;58.60
21540;DHT22;10931;52.164;5.518;2023-04-06T12:51:11;18.30;58.60
21540;DHT22;10931;52.164;5.518;2023-04-06T12:53:49;18.30;58.60
21540;DHT22;10931;52.164;5.518;2023-04-06T12:56:19;18.40;58.60
21540;DHT22;10931;52.164;5.518;2023-04-06T12:58:56;18.40;58.60
21540;DHT22;10931;52.164;5.518;2023-04-06T13:01:21;18.40;58.60
21540;DHT22;10931;52.164;5.518;2023-04-06T13:03:47;18.50;58.60
21540;DHT22;10931;52.164;5.518;2023-04-06T13:06:13;18.50;58.60
21540;DHT22;10931;52.164;5.518;2023-04-06T13:08:43;18.50;58.60
21540;DHT22;10931;52.164;5.518;2023-04-06T13:11:08;18.50;58.50
21540;DHT22;10931;52.164;5.518;2023-04-06T13:13:35;18.50;58.60
21540;DHT22;10931;52.164;5.518;2023-04-06T13:16:06;18.50;58.50
21540;DHT22;10931;52.164;5.518;2023-04-06T13:18:40;18.50;58.50
21540;DHT22;10931;52.164;5.518;2023-04-06T13:21:06;18.50;58.50
21540;DHT22;10931;52.164;5.518;2023-04-06T13:23:35;18.50;58.40
21540;DHT22;10931;52.164;5.518;2023-04-06T13:26:05;18.60;58.40
21540;DHT22;10931;52.164;5.518;2023-04-06T13:28:32;18.60;58.40
21540;DHT22;10931;52.164;5.518;2023-04-06T13:31:02;18.60;58.40
21540;DHT22;10931;52.164;5.518;2023-04-06T13:33:29;18.60;58.40
21540;DHT22;10931;52.164;5.518;2023-04-06T13:36:03;18.60;58.40
21540;DHT22;10931;52.164;5.518;2023-04-06T13:38:32;18.70;58.40
21540;DHT22;10931;52.164;5.518;2023-04-06T13:41:02;18.70;58.40
21540;DHT22;10931;52.164;5.518;2023-04-06T13:43:28;18.70;58.30
21540;DHT22;10931;52.164;5.518;2023-04-06T13:45:57;18.70;58.30
21540;DHT22;10931;52.164;5.518;2023-04-06T13:48:28;18.70;58.30
21540;DHT22;10931;52.164;5.518;2023-04-06T13:50:53;18.70;58.30
21540;DHT22;10931;52.164;5.518;2023-04-06T13:53:19;18.70;58.30
21540;DHT22;10931;52.164;5.518;2023-04-06T13:55:52;18.70;58.20
21540;DHT22;10931;52.164;5.518;2023-04-06T13:58:20;18.70;58.20
21540;DHT22;10931;52.164;5.518;2023-04-06T14:00:46;18.70;58.20
21540;DHT22;10931;52.164;5.518;2023-04-06T14:03:12;18.80;58.30
21540;DHT22;10931;52.164;5.518;2023-04-06T14:05:37;18.80;58.30
21540;DHT22;10931;52.164;5.518;2023-04-06T14:08:06;18.80;58.20
21540;DHT22;10931;52.164;5.518;2023-04-06T14:10:52;18.80;58.30
21540;DHT22;10931;52.164;5.518;2023-04-06T14:13:19;18.80;58.30
21540;DHT22;10931;52.164;5.518;2023-04-06T14:15:45;18.80;58.30
21540;DHT22;10931;52.164;5.518;2023-04-06T14:18:11;18.80;58.30
21540;DHT22;10931;52.164;5.518;2023-04-06T14:20:45;18.90;58.40
21540;DHT22;10931;52.164;5.518;2023-04-06T14:23:11;18.90;58.40
21540;DHT22;10931;52.164;5.518;2023-04-06T14:25:37;18.90;58.40
21540;DHT22;10931;52.164;5.518;2023-04-06T14:28:05;18.90;58.50
21540;DHT22;10931;52.164;5.518;2023-04-06T14:30:34;18.90;58.50
21540;DHT22;10931;52.164;5.518;2023-04-06T14:33:05;19.00;58.60
21540;DHT22;10931;52.164;5.518;2023-04-06T14:35:31;19.00;58.60
21540;DHT22;10931;52.164;5.518;2023-04-06T14:38:02;19.00;58.60
21540;DHT22;10931;52.164;5.518;2023-04-06T14:40:33;19.10;58.70
21540;DHT22;10931;52.164;5.518;2023-04-06T14:43:01;19.10;58.70
21540;DHT22;10931;52.164;5.518;2023-04-06T14:45:27;19.10;58.70
21540;DHT22;10931;52.164;5.518;2023-04-06T14:47:55;19.20;58.80
21540;DHT22;10931;52.164;5.518;2023-04-06T14:50:24;19.20;58.80
21540;DHT22;10931;52.164;5.518;2023-04-06T14:52:52;19.20;58.80
21540;DHT22;10931;52.164;5.518;2023-04-06T14:55:18;19.20;58.80
21540;DHT22;10931;52.164;5.518;2023-04-06T14:57:43;19.30;58.80
21540;DHT22;10931;52.164;5.518;2023-04-06T15:00:12;19.30;58.80
21540;DHT22;10931;52.164;5.518;2023-04-06T15:02:39;19.40;58.90
21540;DHT22;10931;52.164;5.518;2023-04-06T15:05:05;19.40;58.90
21540;DHT22;10931;52.164;5.518;2023-04-06T15:07:34;19.40;59.00
21540;DHT22;10931;52.164;5.518;2023-04-06T15:10:00;19.50;59.00
21540;DHT22;10931;52.164;5.518;2023-04-06T15:12:27;19.40;58.90
21540;DHT22;10931;52.164;5.518;2023-04-06T15:14:54;19.50;59.00
21540;DHT22;10931;52.164;5.518;2023-04-06T15:17:20;19.50;59.00
21540;DHT22;10931;52.164;5.518;2023-04-06T15:19:46;19.50;59.00
21540;DHT22;10931;52.164;5.518;2023-04-06T15:22:18;19.60;59.00
21540;DHT22;10931;52.164;5.518;2023-04-06T15:24:43;19.60;59.00
21540;DHT22;10931;52.164;5.518;2023-04-06T15:27:09;19.60;59.00
21540;DHT22;10931;52.164;5.518;2023-04-06T15:29:35;19.60;59.00
21540;DHT22;10931;52.164;5.518;2023-04-06T15:32:04;19.60;59.00
21540;DHT22;10931;52.164;5.518;2023-04-06T15:34:33;19.70;59.00
21540;DHT22;10931;52.164;5.518;2023-04-06T15:37:04;19.70;59.00
21540;DHT22;10931;52.164;5.518;2023-04-06T15:39:33;19.70;59.00
21540;DHT22;10931;52.164;5.518;2023-04-06T15:41:59;19.70;59.00